createdAt,value
2019-04-11T00:00:12.882Z,48.69
2019-04-11T00:02:42.439Z,49.00
2019-04-11T00:05:12.694Z,48.56
2019-04-11T00:07:42.543Z,48.63
2019-04-11T00:10:12.417Z,49.27
2019-04-11T00:12:42.970Z,49.33
2019-04-11T00:15:12.756Z,48.97
2019-04-11T00:17:42.296Z,49.17
2019-04-11T00:20:12.018Z,49.66
2019-04-11T00:22:41.601Z,49.65
2019-04-11T00:25:11.521Z,50.99
2019-04-11T00:27:41.348Z,49.93
2019-04-11T00:30:12.254Z,49.07
2019-04-11T00:32:42.036Z,49.60
2019-04-11T00:35:11.861Z,49.29
2019-04-11T00:37:41.435Z,49.04
2019-04-11T00:40:11.142Z,49.05
2019-04-11T00:42:40.966Z,49.14
2019-04-11T00:45:11.621Z,50.70
2019-04-11T00:47:41.565Z,49.61
2019-04-11T00:50:11.324Z,49.92
2019-04-11T00:52:41.292Z,50.77
2019-04-11T00:55:11.289Z,50.12
2019-04-11T00:57:41.134Z,49.39
2019-04-11T01:00:11.167Z,49.85
2019-04-11T01:02:42.261Z,50.19
2019-04-11T01:05:13.050Z,49.66
2019-04-11T01:07:42.905Z,50.12
2019-04-11T01:10:12.690Z,49.22
2019-04-11T01:12:42.951Z,49.38
2019-04-11T01:15:15.442Z,49.36
2019-04-11T01:17:47.516Z,50.06
2019-04-11T01:20:17.473Z,49.83
2019-04-11T01:22:47.066Z,50.40
2019-04-11T01:25:16.759Z,49.97
2019-04-11T01:27:46.466Z,50.85
2019-04-11T01:30:20.674Z,50.77
2019-04-11T01:32:50.654Z,51.70
2019-04-11T01:35:21.348Z,51.08
2019-04-11T01:37:50.958Z,50.97
2019-04-11T01:40:21.352Z,50.46
2019-04-11T01:42:51.351Z,50.18
2019-04-11T01:45:22.848Z,50.85
2019-04-11T01:47:57.395Z,50.76
2019-04-11T01:50:29.252Z,50.78
2019-04-11T01:52:58.952Z,50.99
2019-04-11T01:55:28.565Z,50.40
2019-04-11T01:57:58.356Z,50.65
2019-04-11T02:00:32.341Z,49.82
2019-04-11T02:03:03.539Z,50.62
2019-04-11T02:05:34.967Z,50.94
2019-04-11T02:08:04.678Z,51.16
2019-04-11T02:10:35.001Z,50.59
2019-04-11T02:13:05.721Z,51.21
2019-04-11T02:15:36.825Z,50.91
2019-04-11T02:18:07.561Z,51.87
2019-04-11T02:20:38.778Z,50.79
2019-04-11T02:23:20.080Z,51.56
2019-04-11T02:26:05.020Z,51.41
2019-04-11T02:28:34.936Z,51.66
2019-04-11T02:31:05.567Z,51.19
2019-04-11T02:33:37.098Z,51.51
2019-04-11T02:36:07.915Z,51.22
2019-04-11T02:38:39.110Z,51.46
2019-04-11T02:41:10.565Z,51.79
2019-04-11T02:43:44.219Z,51.59
2019-04-11T02:46:23.518Z,51.69
2019-04-11T02:48:44.945Z,51.81
2019-04-11T02:51:15.452Z,52.09
2019-04-11T02:53:45.270Z,51.98
2019-04-11T02:56:17.309Z,51.24
2019-04-11T02:58:48.266Z,51.72
2019-04-11T03:01:18.015Z,51.94
2019-04-11T03:04:14.899Z,52.00
2019-04-11T03:06:45.770Z,51.85
2019-04-11T03:09:17.578Z,51.74
2019-04-11T03:11:47.370Z,51.81
2019-04-11T03:14:20.623Z,51.89
2019-04-11T03:16:59.711Z,51.59
2019-04-11T03:19:37.618Z,52.12
2019-04-11T03:21:54.565Z,51.88
2019-04-11T03:24:26.377Z,52.92
2019-04-11T03:26:58.238Z,52.43
2019-04-11T03:29:29.333Z,52.86
2019-04-11T03:32:37.120Z,53.13
2019-04-11T03:35:20.524Z,52.50
2019-04-11T03:39:57.194Z,53.08
2019-04-11T03:42:20.453Z,52.99
2019-04-11T03:44:44.092Z,53.17
2019-04-11T03:47:23.769Z,53.66
2019-04-11T03:49:51.014Z,53.65
2019-04-11T03:52:17.207Z,52.71
2019-04-11T03:54:47.709Z,53.37
2019-04-11T03:57:18.099Z,52.88
2019-04-11T03:59:48.069Z,53.47
2019-04-11T04:02:17.975Z,53.17
2019-04-11T04:04:49.379Z,53.21
2019-04-11T04:07:21.378Z,53.28
2019-04-11T04:09:51.906Z,53.55
2019-04-11T04:12:24.095Z,53.05
2019-04-11T04:14:54.036Z,52.64
2019-04-11T04:17:33.028Z,53.41
2019-04-11T04:20:15.234Z,53.78
2019-04-11T04:22:56.628Z,55.91
2019-04-11T04:25:28.444Z,55.17
2019-04-11T04:27:58.920Z,54.87
2019-04-11T04:30:29.798Z,55.23
2019-04-11T04:33:00.604Z,55.40
2019-04-11T04:35:33.668Z,54.19
2019-04-11T04:38:05.182Z,54.40
2019-04-11T04:40:51.033Z,54.68
2019-04-11T04:43:10.376Z,53.81
2019-04-11T04:46:01.676Z,53.63
2019-04-11T04:48:14.294Z,53.95
2019-04-11T04:50:42.568Z,53.59
2019-04-11T04:53:13.592Z,54.02
2019-04-11T04:55:43.669Z,54.00
2019-04-11T04:58:15.781Z,53.62
2019-04-11T05:00:45.964Z,53.95
2019-04-11T05:03:15.935Z,53.42
2019-04-11T05:05:46.554Z,53.71
2019-04-11T05:08:16.617Z,53.37
2019-04-11T05:10:47.061Z,53.65
2019-04-11T05:13:17.246Z,53.32
2019-04-11T05:15:46.990Z,53.26
2019-04-11T05:18:18.009Z,53.41
2019-04-11T05:20:48.281Z,53.74
2019-04-11T05:23:18.037Z,53.05
2019-04-11T05:25:47.632Z,53.32
2019-04-11T05:28:17.149Z,53.14
2019-04-11T05:30:46.961Z,53.38
2019-04-11T05:33:17.824Z,52.94
2019-04-11T05:35:48.029Z,52.86
2019-04-11T05:38:18.639Z,55.13
2019-04-11T05:40:48.435Z,55.03
2019-04-11T05:43:18.006Z,55.50
2019-04-11T05:45:48.527Z,53.49
2019-04-11T05:48:25.561Z,52.22
2019-04-11T05:50:54.487Z,52.20
2019-04-11T05:53:25.014Z,52.81
2019-04-11T05:55:55.330Z,52.35
2019-04-11T05:58:26.479Z,52.30
2019-04-11T06:01:01.317Z,52.62
2019-04-11T06:03:32.234Z,52.25
2019-04-11T06:06:18.835Z,52.04
2019-04-11T06:08:49.660Z,52.34
2019-04-11T06:11:30.612Z,51.46
2019-04-11T06:14:05.800Z,51.49
2019-04-11T06:16:43.590Z,52.10
2019-04-11T06:19:16.511Z,51.90
2019-04-11T06:21:53.381Z,50.93
2019-04-11T06:24:30.071Z,51.05
2019-04-11T06:27:01.471Z,50.60
2019-04-11T06:29:32.736Z,50.48
2019-04-11T06:32:21.469Z,49.92
2019-04-11T06:34:52.920Z,49.64
2019-04-11T06:37:41.347Z,48.65
2019-04-11T06:40:12.987Z,48.67
2019-04-11T06:42:44.204Z,48.63
2019-04-11T06:45:15.635Z,48.34
2019-04-11T06:47:47.866Z,48.63
2019-04-11T06:50:25.145Z,47.93
2019-04-11T06:52:54.816Z,47.82
2019-04-11T06:55:35.064Z,48.25
2019-04-11T06:58:06.800Z,47.70
2019-04-11T07:00:39.090Z,47.63
2019-04-11T07:03:18.769Z,47.74
2019-04-11T07:05:40.634Z,47.01
2019-04-11T07:08:10.684Z,47.59
2019-04-11T07:10:51.169Z,46.90
2019-04-11T07:13:22.761Z,46.99
2019-04-11T07:15:52.851Z,46.81
2019-04-11T07:18:37.824Z,46.47
2019-04-11T07:21:10.765Z,46.50
2019-04-11T07:23:59.732Z,46.33
2019-04-11T07:26:30.926Z,45.53
2019-04-11T07:29:08.638Z,46.22
2019-04-11T07:31:50.334Z,45.62
2019-04-11T07:34:39.769Z,44.93
2019-04-11T07:37:26.277Z,46.01
2019-04-11T07:40:03.306Z,45.16
2019-04-11T07:42:49.633Z,44.74
2019-04-11T07:45:37.674Z,44.18
2019-04-11T07:48:17.897Z,44.66
2019-04-11T07:50:48.676Z,43.94
2019-04-11T07:53:19.959Z,42.92
2019-04-11T07:55:51.018Z,43.03
2019-04-11T07:58:30.756Z,42.82
2019-04-11T08:01:16.964Z,43.32
2019-04-11T08:03:57.929Z,43.40
2019-04-11T08:06:34.894Z,43.23
2019-04-11T08:09:24.468Z,42.76
2019-04-11T08:11:56.213Z,41.21
2019-04-11T08:14:33.417Z,42.09
2019-04-11T08:17:04.628Z,42.13
2019-04-11T08:19:47.505Z,42.61
2019-04-11T08:22:21.540Z,42.40
2019-04-11T08:24:58.754Z,41.69
2019-04-11T08:27:29.995Z,41.23
2019-04-11T08:30:02.667Z,41.82
2019-04-11T08:32:38.085Z,42.11
2019-04-11T08:35:12.206Z,42.03
2019-04-11T08:37:44.007Z,41.77
2019-04-11T08:40:15.570Z,41.48
2019-04-11T08:42:57.012Z,41.02
2019-04-11T08:45:28.374Z,40.29
2019-04-11T08:48:00.282Z,39.63
2019-04-11T08:50:31.638Z,40.91
2019-04-11T08:53:16.291Z,39.52
2019-04-11T08:55:53.639Z,39.96
2019-04-11T08:58:20.555Z,39.40
2019-04-11T09:01:00.823Z,38.66
2019-04-11T09:03:34.527Z,39.55
2019-04-11T09:06:12.554Z,38.87
2019-04-11T09:09:00.042Z,38.38
2019-04-11T09:11:33.058Z,38.04
2019-04-11T09:14:08.146Z,39.31
2019-04-11T09:16:45.803Z,37.67
2019-04-11T09:19:27.265Z,37.53
2019-04-11T09:22:11.631Z,37.24
2019-04-11T09:24:43.163Z,37.06
2019-04-11T09:27:31.544Z,38.00
2019-04-11T09:30:02.372Z,37.63
2019-04-11T09:32:50.743Z,37.05
2019-04-11T09:35:20.182Z,36.68
2019-04-11T09:37:49.774Z,36.74
2019-04-11T09:40:37.425Z,36.41
2019-04-11T09:43:22.020Z,35.47
2019-04-11T09:46:06.140Z,35.66
2019-04-11T09:48:53.871Z,34.26
2019-04-11T09:51:28.656Z,34.00
2019-04-11T09:53:59.207Z,33.77
2019-04-11T09:56:39.725Z,35.08
2019-04-11T09:59:14.335Z,34.51
2019-04-11T10:02:03.745Z,33.90
2019-04-11T10:04:36.018Z,32.48
2019-04-11T10:07:23.770Z,33.92
2019-04-11T10:10:02.623Z,33.64
2019-04-11T10:12:38.343Z,32.79
2019-04-11T10:15:13.522Z,33.41
2019-04-11T10:17:48.479Z,32.89
2019-04-11T10:20:20.356Z,32.26
2019-04-11T10:23:08.292Z,31.53
2019-04-11T10:25:39.433Z,30.47
2019-04-11T10:28:19.609Z,32.52
2019-04-11T10:30:50.275Z,30.98
2019-04-11T10:33:24.767Z,32.13
2019-04-11T10:36:02.932Z,30.28
2019-04-11T10:38:33.421Z,32.20
2019-04-11T10:41:10.754Z,31.02
2019-04-11T10:43:40.461Z,30.58
2019-04-11T10:46:15.221Z,30.62
2019-04-11T10:48:47.456Z,31.63
2019-04-11T10:51:25.507Z,31.53
2019-04-11T10:53:57.541Z,32.21
2019-04-11T10:56:44.737Z,31.34
2019-04-11T10:59:15.476Z,30.14
2019-04-11T11:01:52.703Z,31.37
2019-04-11T11:04:29.733Z,30.96
2019-04-11T11:07:02.230Z,31.83
2019-04-11T11:09:42.286Z,30.01
2019-04-11T11:12:29.737Z,30.57
2019-04-11T11:15:01.508Z,31.13
2019-04-11T11:18:20.638Z,30.23
2019-04-11T11:20:41.554Z,30.63
2019-04-11T11:23:27.218Z,29.27
2019-04-11T11:25:59.147Z,29.91
2019-04-11T11:28:30.383Z,30.11
2019-04-11T11:31:08.459Z,28.49
2019-04-11T11:33:38.660Z,28.57
2019-04-11T11:36:19.392Z,29.44
2019-04-11T11:39:06.829Z,29.57
2019-04-11T11:41:54.552Z,29.32
2019-04-11T11:44:25.872Z,29.08
2019-04-11T11:47:15.525Z,29.01
2019-04-11T11:49:54.644Z,29.11
2019-04-11T11:52:19.233Z,29.98
2019-04-11T11:54:48.871Z,28.84
2019-04-11T11:57:20.434Z,27.31
2019-04-11T11:59:52.403Z,27.79
2019-04-11T12:02:26.437Z,27.97
2019-04-11T12:04:57.630Z,28.78
2019-04-11T12:07:33.742Z,28.18
2019-04-11T12:10:13.240Z,28.19
2019-04-11T12:12:46.457Z,27.80
2019-04-11T12:15:35.057Z,26.98
2019-04-11T12:18:15.808Z,25.95
2019-04-11T12:20:49.357Z,26.48
2019-04-11T12:23:29.576Z,27.25
2019-04-11T12:25:59.527Z,28.72
2019-04-11T12:28:46.443Z,26.88
2019-04-11T12:31:16.012Z,25.80
2019-04-11T12:34:03.339Z,26.08
2019-04-11T12:36:34.775Z,24.81
2019-04-11T12:39:08.694Z,25.38
2019-04-11T12:41:42.845Z,26.34
2019-04-11T12:44:30.457Z,25.49
2019-04-11T12:47:13.757Z,26.36
2019-04-11T12:49:52.939Z,26.12
2019-04-11T12:52:38.190Z,26.45
2019-04-11T12:55:16.116Z,26.53
2019-04-11T12:58:03.463Z,26.27
2019-04-11T13:00:32.801Z,26.53
2019-04-11T13:03:07.594Z,25.73
2019-04-11T13:05:38.821Z,25.48
2019-04-11T13:08:12.685Z,25.89
2019-04-11T13:10:43.797Z,26.02
2019-04-11T13:13:13.209Z,26.38
2019-04-11T13:15:44.436Z,26.51
2019-04-11T13:18:29.144Z,26.76
2019-04-11T13:21:06.850Z,26.55
2019-04-11T13:23:54.073Z,26.38
2019-04-11T13:26:40.732Z,26.62
2019-04-11T13:29:12.990Z,25.34
2019-04-11T13:32:00.384Z,25.27
2019-04-11T13:34:30.837Z,25.34
2019-04-11T13:37:00.229Z,25.57
2019-04-11T13:39:29.805Z,25.60
2019-04-11T13:42:17.215Z,25.01
2019-04-11T13:44:47.102Z,23.69
2019-04-11T13:47:16.455Z,24.19
2019-04-11T13:49:47.969Z,22.91
2019-04-11T13:52:22.285Z,23.48
2019-04-11T13:54:59.252Z,23.87
2019-04-11T13:57:30.832Z,22.90
2019-04-11T14:00:18.377Z,23.03
2019-04-11T14:02:52.479Z,22.54
2019-04-11T14:05:22.691Z,22.55
2019-04-11T14:07:53.107Z,22.56
2019-04-11T14:10:23.370Z,21.43
2019-04-11T14:12:57.046Z,20.62
2019-04-11T14:15:29.781Z,18.86
2019-04-11T14:18:01.063Z,14.17
2019-04-11T14:20:46.579Z,12.81
2019-04-11T14:23:21.726Z,12.55
2019-04-11T14:26:01.800Z,11.74
2019-04-11T14:28:35.963Z,10.21
2019-04-11T14:31:23.490Z,10.26
2019-04-11T14:33:55.973Z,10.01
2019-04-11T14:36:33.472Z,10.52
2019-04-11T14:39:02.725Z,10.05
2019-04-11T14:41:32.342Z,9.61
2019-04-11T14:44:03.627Z,9.09
2019-04-11T14:46:52.808Z,9.32
2019-04-11T14:49:22.364Z,8.70
2019-04-11T14:52:03.691Z,8.77
2019-04-11T14:54:34.960Z,8.75
2019-04-11T14:57:06.421Z,8.11
2019-04-11T14:59:40.382Z,9.07
2019-04-11T15:02:09.865Z,8.98
2019-04-11T15:04:43.702Z,9.29
2019-04-11T15:07:15.548Z,8.82
2019-04-11T15:09:46.798Z,8.96
2019-04-11T15:12:18.441Z,8.59
2019-04-11T15:14:56.590Z,7.58
2019-04-11T15:17:33.777Z,7.53
2019-04-11T15:20:07.817Z,7.22
2019-04-11T15:22:44.953Z,8.29
2019-04-11T15:25:26.263Z,9.16
2019-04-11T15:27:58.412Z,9.46
2019-04-11T15:30:43.377Z,8.91
2019-04-11T15:33:30.492Z,9.36
2019-04-11T15:36:01.699Z,9.60
2019-04-11T15:38:41.430Z,9.20
2019-04-11T15:41:12.714Z,9.00
2019-04-11T15:43:59.917Z,10.16
2019-04-11T15:46:31.130Z,9.35
2019-04-11T15:49:21.946Z,9.21
2019-04-11T15:51:51.381Z,9.40
2019-04-11T15:54:38.676Z,9.45
2019-04-11T15:57:13.423Z,8.95
2019-04-11T15:59:44.678Z,9.26
2019-04-11T16:02:16.808Z,8.55
2019-04-11T16:04:46.153Z,8.08
2019-04-11T16:07:29.946Z,8.39
2019-04-11T16:10:01.140Z,8.68
2019-04-11T16:12:30.492Z,10.82
2019-04-11T16:15:01.697Z,13.17
2019-04-11T16:17:36.884Z,13.06
2019-04-11T16:20:09.735Z,13.25
2019-04-11T16:22:39.068Z,12.31
2019-04-11T16:25:12.013Z,14.15
2019-04-11T16:27:49.370Z,17.70
2019-04-11T16:30:22.661Z,19.39
2019-04-11T16:33:06.658Z,20.33
2019-04-11T16:35:42.170Z,20.77
2019-04-11T16:38:29.456Z,20.62
2019-04-11T16:41:04.595Z,21.29
2019-04-11T16:43:34.155Z,22.21
2019-04-11T16:46:24.622Z,22.57
2019-04-11T16:48:55.655Z,22.81
2019-04-11T16:51:30.756Z,22.89
2019-04-11T16:53:55.147Z,23.45
2019-04-11T16:56:24.795Z,24.18
2019-04-11T16:58:54.370Z,24.68
2019-04-11T17:01:23.940Z,25.15
2019-04-11T17:03:55.119Z,25.22
2019-04-11T17:06:27.549Z,25.62
2019-04-11T17:09:07.416Z,25.86
2019-04-11T17:11:37.060Z,25.94
2019-04-11T17:14:06.693Z,26.63
2019-04-11T17:16:36.352Z,26.76
2019-04-11T17:19:06.279Z,27.30
2019-04-11T17:21:43.033Z,27.03
2019-04-11T17:24:07.170Z,27.09
2019-04-11T17:26:36.737Z,27.27
2019-04-11T17:29:06.310Z,27.69
2019-04-11T17:31:35.891Z,28.00
2019-04-11T17:34:05.792Z,27.91
2019-04-11T17:36:35.381Z,28.31
2019-04-11T17:39:07.690Z,28.76
2019-04-11T17:41:37.399Z,28.15
2019-04-11T17:44:07.049Z,28.16
2019-04-11T17:46:36.613Z,28.96
2019-04-11T17:49:06.218Z,28.79
2019-04-11T17:51:35.760Z,29.07
2019-04-11T17:54:05.405Z,29.56
2019-04-11T17:56:34.972Z,29.46
2019-04-11T17:59:04.547Z,30.33
2019-04-11T18:01:37.809Z,30.76
2019-04-11T18:04:05.651Z,30.03
2019-04-11T18:06:35.779Z,30.50
2019-04-11T18:09:10.269Z,30.33
2019-04-11T18:11:40.292Z,30.73
2019-04-11T18:14:09.857Z,30.87
2019-04-11T18:16:39.434Z,31.36
2019-04-11T18:19:09.886Z,31.10
2019-04-11T18:21:39.558Z,31.32
2019-04-11T18:24:09.659Z,31.39
2019-04-11T18:26:39.451Z,31.69
2019-04-11T18:29:09.009Z,31.64
2019-04-11T18:31:38.587Z,31.86
2019-04-11T18:34:08.154Z,31.93
2019-04-11T18:36:37.800Z,31.94
2019-04-11T18:39:08.398Z,31.79
2019-04-11T18:41:37.971Z,32.21
2019-04-11T18:44:07.910Z,32.55
2019-04-11T18:46:37.467Z,32.54
2019-04-11T18:49:07.249Z,32.34
2019-04-11T18:51:36.819Z,32.79
2019-04-11T18:54:07.790Z,32.52
2019-04-11T18:56:38.221Z,33.23
2019-04-11T18:59:07.926Z,32.44
2019-04-11T19:01:39.834Z,32.73
2019-04-11T19:04:12.016Z,32.49
2019-04-11T19:06:43.031Z,32.74
2019-04-11T19:09:14.851Z,33.01
2019-04-11T19:11:46.246Z,33.06
2019-04-11T19:14:16.617Z,32.82
2019-04-11T19:16:46.870Z,33.63
2019-04-11T19:19:18.582Z,33.34
2019-04-11T19:21:50.750Z,33.19
2019-04-11T19:24:19.014Z,33.44
2019-04-11T19:26:48.770Z,34.06
2019-04-11T19:29:19.268Z,34.17
2019-04-11T19:31:48.825Z,34.10
2019-04-11T19:34:18.399Z,33.99
2019-04-11T19:36:48.020Z,34.05
2019-04-11T19:39:18.669Z,34.22
2019-04-11T19:41:48.663Z,34.53
2019-04-11T19:44:19.317Z,34.72
2019-04-11T19:46:50.949Z,34.81
2019-04-11T19:49:20.837Z,35.02
2019-04-11T19:51:50.962Z,34.91
2019-04-11T19:54:20.701Z,35.19
2019-04-11T19:57:06.375Z,35.29
2019-04-11T19:59:35.934Z,35.50
2019-04-11T20:02:06.016Z,35.30
2019-04-11T20:04:35.577Z,35.06
2019-04-11T20:07:05.196Z,35.22
2019-04-11T20:09:34.773Z,35.80
2019-04-11T20:12:04.325Z,35.81
2019-04-11T20:14:34.860Z,35.99
2019-04-11T20:17:04.715Z,35.85
2019-04-11T20:19:34.263Z,36.04
2019-04-11T20:22:08.213Z,35.88
2019-04-11T20:24:35.102Z,36.14
2019-04-11T20:27:04.668Z,36.29
2019-04-11T20:29:34.233Z,36.55
2019-04-11T20:32:03.784Z,36.31
2019-04-11T20:34:33.389Z,36.47
2019-04-11T20:37:02.943Z,36.42
2019-04-11T20:39:32.571Z,36.60
2019-04-11T20:42:02.129Z,36.73
2019-04-11T20:44:34.351Z,36.79
2019-04-11T20:47:03.914Z,36.72
2019-04-11T20:49:35.131Z,36.33
2019-04-11T20:52:04.678Z,36.66
2019-04-11T20:54:35.960Z,37.22
2019-04-11T20:57:05.521Z,36.94
2019-04-11T20:59:35.277Z,37.15
2019-04-11T21:02:04.909Z,37.19
2019-04-11T21:04:35.939Z,37.69
2019-04-11T21:07:05.995Z,37.25
2019-04-11T21:09:35.630Z,37.37
2019-04-11T21:12:07.588Z,37.66
2019-04-11T21:14:37.094Z,37.81
2019-04-11T21:17:08.145Z,37.89
2019-04-11T21:19:37.710Z,38.03
2019-04-11T21:22:07.306Z,38.11
2019-04-11T21:24:37.146Z,38.01
2019-04-11T21:27:07.066Z,37.89
2019-04-11T21:29:36.629Z,38.63
2019-04-11T21:32:06.182Z,38.26
2019-04-11T21:34:35.746Z,38.33
2019-04-11T21:37:07.100Z,38.57
2019-04-11T21:39:36.666Z,38.54
2019-04-11T21:42:06.727Z,38.78
2019-04-11T21:44:36.877Z,37.74
2019-04-11T21:47:07.313Z,37.99
2019-04-11T21:49:37.770Z,38.04
2019-04-11T21:52:07.438Z,37.65
2019-04-11T21:54:37.216Z,37.80
2019-04-11T21:57:06.795Z,38.76
2019-04-11T21:59:36.353Z,38.72
2019-04-11T22:02:08.257Z,38.70
2019-04-11T22:04:37.819Z,38.44
2019-04-11T22:07:07.367Z,38.90
2019-04-11T22:09:37.005Z,38.05
2019-04-11T22:12:08.775Z,37.84
2019-04-11T22:14:41.337Z,37.94
2019-04-11T22:17:09.712Z,37.69
2019-04-11T22:19:39.281Z,38.22
2019-04-11T22:22:08.903Z,39.63
2019-04-11T22:24:38.459Z,39.80
2019-04-11T22:27:08.025Z,39.46
2019-04-11T22:29:37.590Z,39.67
2019-04-11T22:32:07.158Z,39.12
2019-04-11T22:34:38.346Z,39.22
2019-04-11T22:37:07.914Z,39.02
2019-04-11T22:39:37.469Z,39.35
2019-04-11T22:42:07.104Z,39.30
2019-04-11T22:44:38.088Z,39.87
2019-04-11T22:47:08.606Z,39.91
2019-04-11T22:49:39.365Z,40.33
2019-04-11T22:52:11.361Z,40.81
2019-04-11T22:54:41.781Z,40.71
2019-04-11T22:57:12.105Z,40.36
2019-04-11T22:59:44.971Z,40.32
2019-04-11T23:02:18.316Z,40.44
2019-04-11T23:04:47.970Z,40.43
2019-04-11T23:07:17.910Z,40.06
2019-04-11T23:09:49.079Z,40.37
2019-04-11T23:12:19.172Z,40.53
2019-04-11T23:14:48.724Z,39.94
2019-04-11T23:17:18.546Z,39.99
2019-04-11T23:19:48.045Z,40.55
2019-04-11T23:22:17.624Z,40.24
2019-04-11T23:24:47.231Z,40.49
2019-04-11T23:27:16.803Z,40.47
2019-04-11T23:29:47.170Z,40.87
2019-04-11T23:32:21.003Z,41.06
2019-04-11T23:34:52.649Z,41.04
2019-04-11T23:37:21.744Z,41.57
2019-04-11T23:39:51.738Z,41.62
2019-04-11T23:42:21.413Z,42.13
2019-04-11T23:44:51.273Z,42.42
2019-04-11T23:47:23.026Z,42.54
2019-04-11T23:49:55.122Z,42.80
2019-04-11T23:52:26.410Z,42.71
2019-04-11T23:54:54.763Z,43.02
2019-04-11T23:57:24.322Z,42.55
2019-04-11T23:59:53.891Z,43.24
